createdAt,value
2022-12-27T00:02:53.686Z,68.33
2022-12-27T00:06:57.041Z,68.20
2022-12-27T00:11:06.655Z,68.51
2022-12-27T00:15:10.754Z,68.76
2022-12-27T00:19:15.319Z,68.32
2022-12-27T00:23:18.587Z,68.11
2022-12-27T00:27:21.672Z,67.68
2022-12-27T00:31:26.325Z,68.34
2022-12-27T00:35:30.767Z,67.72
2022-12-27T00:39:34.145Z,68.07
2022-12-27T00:43:37.672Z,67.49
2022-12-27T00:47:41.006Z,67.78
2022-12-27T00:51:45.639Z,67.90
2022-12-27T00:55:48.974Z,67.77
2022-12-27T00:59:52.234Z,68.02
2022-12-27T01:03:55.690Z,67.93
2022-12-27T01:08:00.509Z,68.01
2022-12-27T01:12:03.524Z,68.29
2022-12-27T01:16:10.838Z,68.42
2022-12-27T01:20:14.087Z,68.17
2022-12-27T01:24:18.991Z,68.70
2022-12-27T01:28:22.072Z,69.26
2022-12-27T01:32:26.181Z,69.42
2022-12-27T01:36:31.020Z,69.21
2022-12-27T01:40:36.837Z,69.26
2022-12-27T01:44:52.031Z,69.54
2022-12-27T01:48:56.227Z,69.54
2022-12-27T01:53:06.969Z,70.03
2022-12-27T01:57:12.374Z,70.26
2022-12-27T02:01:19.102Z,69.89
2022-12-27T02:05:25.639Z,70.28
2022-12-27T02:09:39.974Z,70.03
2022-12-27T02:13:47.286Z,70.29
2022-12-27T02:17:50.659Z,70.42
2022-12-27T02:22:14.341Z,70.02
2022-12-27T02:26:40.815Z,70.11
2022-12-27T02:30:48.440Z,69.74
2022-12-27T02:35:01.041Z,70.06
2022-12-27T02:39:05.165Z,69.89
2022-12-27T02:43:26.067Z,69.70
2022-12-27T02:47:49.584Z,68.56
2022-12-27T02:52:26.459Z,68.01
2022-12-27T02:56:55.222Z,68.40
2022-12-27T03:01:27.716Z,68.04
2022-12-27T03:05:46.191Z,66.79
2022-12-27T03:10:21.678Z,67.37
2022-12-27T03:14:55.881Z,67.27
2022-12-27T03:19:08.144Z,67.52
2022-12-27T03:23:31.032Z,66.80
2022-12-27T03:27:36.538Z,67.62
2022-12-27T03:32:01.851Z,66.86
2022-12-27T03:36:26.836Z,66.25
2022-12-27T03:40:39.651Z,67.20
2022-12-27T03:44:41.406Z,68.71
2022-12-27T03:48:56.692Z,66.98
2022-12-27T03:53:07.982Z,63.36
2022-12-27T03:57:15.321Z,63.09
2022-12-27T04:01:18.771Z,61.44
2022-12-27T04:05:21.794Z,60.64
2022-12-27T04:09:42.380Z,60.08
2022-12-27T04:14:04.689Z,59.97
2022-12-27T04:18:25.166Z,60.07
2022-12-27T04:22:45.994Z,59.20
2022-12-27T04:27:06.281Z,58.49
2022-12-27T04:31:28.365Z,59.54
2022-12-27T04:35:31.516Z,59.90
2022-12-27T04:39:34.762Z,60.69
2022-12-27T04:43:55.106Z,60.44
2022-12-27T04:48:17.687Z,61.48
2022-12-27T04:52:56.116Z,62.39
2022-12-27T04:56:59.363Z,61.32
2022-12-27T05:01:21.857Z,60.78
2022-12-27T05:05:27.324Z,62.32
2022-12-27T05:09:48.002Z,62.06
2022-12-27T05:14:03.490Z,62.71
2022-12-27T05:18:06.932Z,63.56
2022-12-27T05:22:29.169Z,63.05
2022-12-27T05:26:33.365Z,62.40
2022-12-27T05:30:37.792Z,61.54
2022-12-27T05:34:41.045Z,62.44
2022-12-27T05:38:45.920Z,62.70
2022-12-27T05:42:49.254Z,62.98
2022-12-27T05:46:52.234Z,63.21
2022-12-27T05:50:55.476Z,63.20
2022-12-27T05:55:00.378Z,63.27
2022-12-27T05:59:03.651Z,63.53
2022-12-27T06:03:06.749Z,63.47
2022-12-27T06:07:12.372Z,64.07
2022-12-27T06:11:19.004Z,62.91
2022-12-27T06:15:22.126Z,64.00
2022-12-27T06:19:25.400Z,64.04
2022-12-27T06:23:28.619Z,64.11
2022-12-27T06:27:33.346Z,64.36
2022-12-27T06:31:36.645Z,63.84
2022-12-27T06:35:39.716Z,64.75
2022-12-27T06:39:42.985Z,65.35
2022-12-27T06:43:48.367Z,65.23
2022-12-27T06:47:51.397Z,65.25
2022-12-27T06:51:59.537Z,65.08
2022-12-27T06:56:05.672Z,64.73
2022-12-27T07:00:13.671Z,65.00
2022-12-27T07:04:17.055Z,65.72
2022-12-27T07:08:20.134Z,65.84
2022-12-27T07:12:23.409Z,65.92
2022-12-27T07:16:31.205Z,66.16
2022-12-27T07:20:34.630Z,66.70
2022-12-27T07:24:37.690Z,66.65
2022-12-27T07:28:41.084Z,67.67
2022-12-27T07:32:45.717Z,67.45
2022-12-27T07:36:49.375Z,67.80
2022-12-27T07:40:52.395Z,67.81
2022-12-27T07:44:55.679Z,67.88
2022-12-27T07:49:01.176Z,67.67
2022-12-27T07:53:04.439Z,67.98
2022-12-27T07:57:07.507Z,67.98
2022-12-27T08:01:12.023Z,67.14
2022-12-27T08:05:20.359Z,66.89
2022-12-27T08:09:30.338Z,67.75
2022-12-27T08:13:33.711Z,66.81
2022-12-27T08:17:36.960Z,66.28
2022-12-27T08:21:41.790Z,66.05
2022-12-27T08:25:49.072Z,66.71
2022-12-27T08:29:52.360Z,65.57
2022-12-27T08:33:58.852Z,64.71
2022-12-27T08:38:04.203Z,63.84
2022-12-27T08:42:07.407Z,61.98
2022-12-27T08:46:10.995Z,60.94
2022-12-27T08:50:14.300Z,60.30
2022-12-27T08:54:19.172Z,59.87
2022-12-27T08:58:22.229Z,58.51
2022-12-27T09:02:25.532Z,58.61
2022-12-27T09:06:29.082Z,59.96
2022-12-27T09:10:33.806Z,61.96
2022-12-27T09:14:36.998Z,59.75
2022-12-27T09:18:40.471Z,57.78
2022-12-27T09:22:43.639Z,59.31
2022-12-27T09:26:48.285Z,59.88
2022-12-27T09:30:51.535Z,59.00
2022-12-27T09:34:55.702Z,57.77
2022-12-27T09:39:00.018Z,58.05
2022-12-27T09:43:19.557Z,57.56
2022-12-27T09:47:28.554Z,57.58
2022-12-27T09:51:36.127Z,57.03
2022-12-27T09:55:44.553Z,57.20
2022-12-27T09:59:51.745Z,55.14
2022-12-27T10:03:55.606Z,56.96
2022-12-27T10:08:13.895Z,56.37
2022-12-27T10:12:32.065Z,56.25
2022-12-27T10:16:43.213Z,57.10
2022-12-27T10:21:03.530Z,55.49
2022-12-27T10:25:13.365Z,54.46
2022-12-27T10:29:22.221Z,52.57
2022-12-27T10:33:32.672Z,55.21
2022-12-27T10:37:35.738Z,55.26
2022-12-27T10:41:50.525Z,54.06
2022-12-27T10:45:54.703Z,52.90
2022-12-27T10:50:11.569Z,51.89
2022-12-27T11:04:59.344Z,55.48
2022-12-27T11:09:27.409Z,53.83
2022-12-27T11:13:30.413Z,50.06
2022-12-27T11:17:48.031Z,54.13
2022-12-27T11:21:52.687Z,52.53
2022-12-27T11:25:59.586Z,53.36
2022-12-27T11:30:03.975Z,52.44
2022-12-27T11:34:14.593Z,50.14
2022-12-27T11:38:25.620Z,51.48
2022-12-27T11:42:38.707Z,54.17
2022-12-27T11:46:46.673Z,54.45
2022-12-27T14:59:38.551Z,60.69
2022-12-27T15:04:05.058Z,61.16
2022-12-27T15:08:24.272Z,60.58
2022-12-27T15:12:37.117Z,60.02
2022-12-27T15:16:45.806Z,62.93
2022-12-27T15:21:24.569Z,62.53
2022-12-27T15:25:44.669Z,60.79
2022-12-27T15:30:01.967Z,61.52
2022-12-27T15:34:24.389Z,60.91
2022-12-27T15:38:42.517Z,61.82
2022-12-27T15:42:55.425Z,61.68
2022-12-27T15:47:37.497Z,62.39
2022-12-27T15:51:50.529Z,61.80
2022-12-27T15:56:12.589Z,62.58
2022-12-27T16:00:33.318Z,62.32
2022-12-27T16:04:48.418Z,61.88
2022-12-27T16:09:24.860Z,62.45
2022-12-27T16:13:41.866Z,61.98
2022-12-27T16:17:56.904Z,62.87
2022-12-27T16:22:00.450Z,62.41
2022-12-27T16:26:07.753Z,62.91
2022-12-27T16:30:12.168Z,62.69
2022-12-27T16:34:25.926Z,62.68
2022-12-27T16:38:32.318Z,62.27
2022-12-27T16:43:10.872Z,62.84
2022-12-27T16:47:50.004Z,62.75
2022-12-27T16:52:20.071Z,63.11
2022-12-27T16:56:48.286Z,62.46
2022-12-27T17:00:52.978Z,62.54
2022-12-27T17:05:00.667Z,62.30
2022-12-27T17:09:43.172Z,63.01
2022-12-27T17:13:51.278Z,62.35
2022-12-27T17:17:58.618Z,62.95
2022-12-27T17:22:05.133Z,62.70
2022-12-27T17:26:23.758Z,62.38
2022-12-27T17:30:38.488Z,63.13
2022-12-27T17:34:55.127Z,62.89
2022-12-27T17:39:22.960Z,62.45
2022-12-27T17:43:54.206Z,62.31
2022-12-27T17:48:10.331Z,62.01
2022-12-27T17:52:35.895Z,61.57
2022-12-27T17:57:04.888Z,62.24
2022-12-27T18:01:08.341Z,61.97
2022-12-27T18:05:16.232Z,61.92
2022-12-27T18:09:34.000Z,62.28
2022-12-27T18:13:41.261Z,62.31
2022-12-27T18:17:48.074Z,62.80
2022-12-27T18:22:01.382Z,63.84
2022-12-27T18:26:13.504Z,63.70
2022-12-27T18:30:17.060Z,63.96
2022-12-27T18:34:26.947Z,63.69
2022-12-27T18:38:36.395Z,64.13
2022-12-27T18:42:45.108Z,64.74
2022-12-27T18:46:51.400Z,64.43
2022-12-27T18:50:58.401Z,64.93
2022-12-27T18:55:19.321Z,63.95
2022-12-27T18:59:26.575Z,64.44
2022-12-27T19:03:35.227Z,64.07
2022-12-27T19:07:42.179Z,64.41
2022-12-27T19:11:54.478Z,64.03
2022-12-27T19:16:02.525Z,63.65
2022-12-27T19:20:10.037Z,64.01
2022-12-27T19:24:32.959Z,64.98
2022-12-27T19:28:37.713Z,64.95
2022-12-27T19:32:42.393Z,64.67
2022-12-27T19:36:47.299Z,64.29
2022-12-27T19:40:59.536Z,64.85
2022-12-27T19:45:10.859Z,65.25
2022-12-27T19:53:39.740Z,66.32
2022-12-27T19:57:44.498Z,66.79
2022-12-27T20:01:49.813Z,66.58
2022-12-27T20:06:13.587Z,66.95
2022-12-27T20:10:18.737Z,67.24
2022-12-27T20:14:21.903Z,66.81
2022-12-27T20:18:28.181Z,67.37
2022-12-27T20:22:31.272Z,67.16
2022-12-27T20:26:34.763Z,67.44
2022-12-27T20:30:39.737Z,66.75
2022-12-27T20:34:44.526Z,67.00
2022-12-27T20:38:47.731Z,67.53
2022-12-27T20:42:51.293Z,67.29
2022-12-27T20:46:54.447Z,67.21
2022-12-27T20:50:59.318Z,67.76
2022-12-27T20:55:02.500Z,67.83
2022-12-27T20:59:06.020Z,67.51
2022-12-27T21:03:11.149Z,68.57
2022-12-27T21:07:16.164Z,68.10
2022-12-27T21:11:21.445Z,68.30
2022-12-27T21:15:24.828Z,68.83
2022-12-27T21:19:27.896Z,68.92
2022-12-27T21:23:34.769Z,68.95
2022-12-27T21:27:37.989Z,68.79
2022-12-27T21:31:41.436Z,69.09
2022-12-27T21:35:44.868Z,69.33
2022-12-27T21:39:49.612Z,69.45
2022-12-27T21:43:56.122Z,69.90
2022-12-27T21:47:59.443Z,70.27
2022-12-27T21:52:02.599Z,70.63
2022-12-27T21:56:08.189Z,70.73
2022-12-27T22:00:13.068Z,70.63
2022-12-27T22:04:16.273Z,71.07
2022-12-27T22:08:19.331Z,71.29
2022-12-27T22:12:24.436Z,71.03
2022-12-27T22:16:29.348Z,71.06
2022-12-27T22:20:32.665Z,71.13
2022-12-27T22:24:35.802Z,70.65
2022-12-27T22:28:40.777Z,70.82
2022-12-27T22:32:43.845Z,71.10
2022-12-27T22:36:47.579Z,71.03
2022-12-27T22:40:51.016Z,71.59
2022-12-27T22:44:55.975Z,72.51
2022-12-27T22:49:02.683Z,73.47
2022-12-27T22:53:06.163Z,73.86
2022-12-27T22:57:09.176Z,73.98
2022-12-27T23:01:15.152Z,74.54
2022-12-27T23:05:18.521Z,74.45
2022-12-27T23:14:43.475Z,73.16
2022-12-27T23:18:48.127Z,72.94
2022-12-27T23:22:51.429Z,72.72
2022-12-27T23:26:54.577Z,72.44
2022-12-27T23:30:58.091Z,72.37
2022-12-27T23:35:02.757Z,72.72
2022-12-27T23:39:06.772Z,73.37
2022-12-27T23:43:42.183Z,73.13
2022-12-27T23:47:33.158Z,72.93
2022-12-27T23:55:45.024Z,72.96
2022-12-27T23:59:49.513Z,72.93
